createdAt,value
2022-11-28T00:03:14.909Z,29.33
2022-11-28T00:08:20.929Z,43.25
2022-11-28T00:13:26.290Z,36.00
2022-11-28T00:18:31.995Z,37.50
2022-11-28T00:23:38.462Z,40.67
2022-11-28T00:28:44.059Z,29.00
2022-11-28T00:33:49.941Z,29.33
2022-11-28T00:38:55.227Z,29.50
2022-11-28T00:44:00.820Z,34.00
2022-11-28T00:49:06.369Z,36.00
2022-11-28T00:54:12.719Z,38.00
2022-11-28T00:59:19.872Z,31.00
2022-11-28T01:04:25.392Z,31.25
2022-11-28T01:09:32.568Z,26.50
2022-11-28T01:14:38.332Z,27.33
2022-11-28T01:19:43.863Z,33.25
2022-11-28T01:24:49.360Z,18.33
2022-11-28T01:29:54.896Z,10.50
2022-11-28T01:35:00.428Z,6.00
2022-11-28T01:40:06.526Z,0.00
2022-11-28T01:45:22.740Z,0.00
2022-11-28T01:50:30.283Z,0.67
2022-11-28T01:55:41.570Z,1.50
2022-11-28T02:00:48.134Z,0.00
2022-11-28T02:05:55.029Z,3.50
2022-11-28T02:11:12.440Z,2.00
2022-11-28T02:16:30.593Z,2.00
2022-11-28T02:21:57.391Z,0.00
2022-11-28T02:32:46.926Z,0.00
2022-11-28T02:38:25.673Z,3.50
2022-11-28T02:43:36.988Z,12.67
2022-11-28T02:49:10.139Z,0.00
2022-11-28T02:54:19.678Z,0.50
2022-11-28T02:59:49.764Z,25.75
2022-11-28T03:05:32.530Z,5.00
2022-11-28T03:11:10.486Z,8.00
2022-11-28T03:16:40.104Z,7.00
2022-11-28T03:22:06.437Z,1.00
2022-11-28T03:27:26.361Z,13.33
2022-11-28T03:32:39.015Z,21.75
2022-11-28T03:38:14.991Z,21.50
2022-11-28T03:48:36.248Z,11.50
2022-11-28T03:53:45.441Z,7.50
2022-11-28T03:59:19.090Z,10.00
2022-11-28T04:05:22.998Z,9.00
2022-11-28T04:11:08.174Z,10.75
2022-11-28T04:16:31.648Z,8.00
2022-11-28T04:21:46.766Z,5.00
2022-11-28T04:27:02.549Z,18.50
2022-11-28T04:32:11.082Z,13.00
2022-11-28T04:37:19.078Z,13.50
2022-11-28T04:42:34.674Z,8.00
2022-11-28T04:47:40.577Z,8.00
2022-11-28T04:53:09.325Z,19.50
2022-11-28T04:58:33.243Z,2.00
2022-11-28T05:03:42.756Z,2.00
2022-11-28T05:08:50.475Z,2.00
2022-11-28T05:13:58.699Z,2.00
2022-11-28T05:19:04.311Z,11.25
2022-11-28T05:24:12.628Z,2.50
2022-11-28T05:29:18.631Z,2.00
2022-11-28T05:34:24.680Z,2.00
2022-11-28T05:39:30.402Z,5.50
2022-11-28T05:44:35.745Z,0.00
2022-11-28T05:49:41.389Z,0.00
2022-11-28T05:54:46.999Z,4.50
2022-11-28T05:59:52.419Z,12.00
2022-11-28T06:05:16.100Z,8.00
2022-11-28T06:10:26.603Z,0.50
2022-11-28T06:15:38.203Z,15.00
2022-11-28T06:20:45.141Z,7.50
2022-11-28T06:25:50.647Z,6.00
2022-11-28T06:30:56.994Z,2.00
2022-11-28T06:36:03.914Z,0.00
2022-11-28T06:41:14.766Z,10.00
2022-11-28T06:46:24.885Z,8.00
2022-11-28T06:51:30.481Z,14.00
2022-11-28T06:56:35.935Z,2.00
2022-11-28T07:01:41.532Z,0.00
2022-11-28T07:06:47.947Z,0.67
2022-11-28T07:11:53.378Z,0.00
2022-11-28T07:16:59.921Z,14.00
2022-11-28T07:22:07.232Z,4.67
2022-11-28T07:27:12.513Z,0.00
2022-11-28T07:32:21.253Z,8.00
2022-11-28T07:37:31.166Z,0.00
2022-11-28T07:42:36.969Z,16.75
2022-11-28T07:47:42.402Z,18.67
2022-11-28T07:52:47.689Z,2.00
2022-11-28T07:57:52.980Z,3.50
2022-11-28T08:02:58.359Z,4.00
2022-11-28T08:08:03.715Z,7.50
2022-11-28T08:13:09.215Z,9.33
2022-11-28T08:18:14.609Z,0.00
2022-11-28T08:23:21.153Z,10.00
2022-11-28T08:28:28.713Z,5.33
2022-11-28T08:38:40.090Z,4.00
2022-11-28T08:43:45.560Z,1.00
2022-11-28T08:48:53.924Z,8.00
2022-11-28T08:53:59.787Z,12.00
2022-11-28T08:59:05.715Z,10.50
2022-11-28T09:04:11.144Z,14.00
2022-11-28T09:09:17.838Z,8.67
2022-11-28T09:14:23.232Z,19.50
2022-11-28T09:19:28.684Z,16.75
2022-11-28T09:24:36.012Z,4.00
2022-11-28T09:29:41.621Z,20.67
2022-11-28T09:34:47.121Z,31.75
2022-11-28T09:40:12.260Z,2.67
2022-11-28T09:45:22.711Z,0.00
2022-11-28T09:50:35.607Z,29.50
2022-11-28T09:55:43.885Z,18.00
2022-11-28T10:01:07.848Z,2.00
2022-11-28T10:06:18.810Z,9.33
2022-11-28T10:11:53.867Z,7.00
2022-11-28T10:17:08.077Z,2.67
2022-11-28T10:22:19.482Z,11.67
2022-11-28T10:27:33.904Z,4.00
2022-11-28T10:32:49.126Z,17.25
2022-11-28T10:37:55.719Z,6.00
2022-11-28T10:43:19.110Z,0.00
2022-11-28T10:48:40.655Z,4.50
2022-11-28T10:53:46.400Z,9.00
2022-11-28T10:59:00.518Z,0.00
2022-11-28T11:04:08.099Z,2.50
2022-11-28T11:09:16.022Z,13.00
2022-11-28T11:14:38.595Z,4.00
2022-11-28T11:19:44.286Z,0.00
2022-11-28T11:25:17.118Z,3.00
2022-11-28T11:30:47.420Z,27.50
2022-11-28T11:35:52.833Z,4.00
2022-11-28T11:40:58.713Z,4.00
2022-11-28T11:46:16.154Z,4.00
2022-11-28T11:51:39.229Z,2.00
2022-11-28T11:56:53.587Z,17.50
2022-11-28T12:02:04.861Z,14.25
2022-11-28T12:07:38.316Z,10.00
2022-11-28T12:12:43.889Z,14.00
2022-11-28T12:17:59.068Z,4.50
2022-11-28T12:23:39.273Z,15.00
2022-11-28T12:29:29.186Z,6.00
2022-11-28T12:35:03.926Z,8.67
2022-11-28T12:40:21.733Z,9.00
2022-11-28T12:45:32.873Z,12.00
2022-11-28T12:51:12.785Z,14.25
2022-11-28T12:56:32.953Z,9.50
2022-11-28T13:02:25.622Z,14.00
2022-11-28T13:08:08.080Z,12.00
2022-11-28T13:13:21.067Z,2.50
2022-11-28T13:18:37.522Z,8.50
2022-11-28T13:24:07.599Z,10.67
2022-11-28T13:29:28.643Z,13.00
2022-11-28T13:34:36.686Z,9.33
2022-11-28T13:39:52.978Z,17.00
2022-11-28T13:45:05.437Z,15.25
2022-11-28T13:50:34.970Z,23.67
2022-11-28T13:55:49.761Z,31.00
2022-11-28T14:01:19.989Z,23.00
2022-11-28T14:06:46.365Z,14.00
2022-11-28T14:12:02.421Z,10.00
2022-11-28T14:17:40.435Z,10.00
2022-11-28T14:23:17.224Z,13.00
2022-11-28T14:28:31.085Z,27.33
2022-11-28T14:33:42.039Z,31.00
2022-11-28T14:43:56.138Z,12.00
2022-11-28T14:49:19.597Z,17.25
2022-11-28T14:54:32.355Z,8.00
2022-11-28T14:59:41.938Z,2.50
2022-11-28T15:04:58.441Z,17.25
2022-11-28T15:10:32.919Z,18.00
2022-11-28T15:15:52.591Z,24.50
2022-11-28T15:21:07.260Z,18.75
2022-11-28T15:26:32.940Z,15.00
2022-11-28T15:31:40.950Z,32.67
2022-11-28T15:36:47.977Z,10.00
2022-11-28T15:41:54.360Z,7.33
2022-11-28T15:47:01.696Z,7.33
2022-11-28T15:52:07.984Z,21.25
2022-11-28T15:57:41.653Z,7.33
2022-11-28T16:02:48.966Z,8.00
2022-11-28T16:07:54.985Z,15.00
2022-11-28T16:13:12.491Z,20.00
2022-11-28T16:18:19.961Z,8.50
2022-11-28T16:23:36.613Z,28.33
2022-11-28T16:28:42.536Z,42.00
2022-11-28T16:33:49.203Z,9.50
2022-11-28T16:39:19.026Z,8.67
2022-11-28T16:44:28.567Z,1.00
2022-11-28T16:49:45.877Z,2.00
2022-11-28T16:54:53.353Z,5.00
2022-11-28T16:59:59.294Z,0.00
2022-11-28T17:05:04.935Z,0.00
2022-11-28T17:10:13.945Z,5.50
2022-11-28T17:15:24.135Z,4.00
2022-11-28T17:20:30.308Z,10.00
2022-11-28T17:25:36.043Z,4.50
2022-11-28T17:30:42.087Z,14.00
2022-11-28T17:35:49.123Z,5.33
2022-11-28T17:40:54.587Z,4.00
2022-11-28T17:45:59.755Z,8.00
2022-11-28T17:51:05.208Z,0.00
2022-11-28T17:56:14.250Z,3.33
2022-11-28T18:01:26.933Z,2.00
2022-11-28T18:06:36.245Z,4.00
2022-11-28T18:11:42.701Z,1.33
2022-11-28T18:16:48.166Z,0.00
2022-11-28T18:21:53.927Z,0.00
2022-11-28T18:26:59.856Z,8.00
2022-11-28T18:32:05.832Z,3.50
2022-11-28T18:37:11.982Z,2.00
2022-11-28T18:42:18.173Z,8.00
2022-11-28T18:47:23.420Z,1.50
2022-11-28T18:52:30.125Z,6.00
2022-11-28T18:57:36.342Z,8.00
2022-11-28T19:02:42.873Z,0.00
2022-11-28T19:07:48.639Z,3.00
2022-11-28T19:12:53.619Z,2.00
2022-11-28T19:23:04.865Z,4.00
2022-11-28T19:28:10.474Z,2.00
2022-11-28T19:33:16.591Z,4.50
2022-11-28T19:38:22.242Z,2.00
2022-11-28T19:43:27.595Z,5.33
2022-11-28T19:48:34.477Z,5.00
2022-11-28T19:53:43.527Z,1.50
2022-11-28T19:58:49.407Z,8.00
2022-11-28T20:03:55.731Z,4.50
2022-11-28T20:09:03.923Z,2.50
2022-11-28T20:14:15.384Z,4.50
2022-11-28T20:19:20.832Z,7.50
2022-11-28T20:24:26.821Z,6.00
2022-11-28T20:29:32.440Z,4.50
2022-11-28T20:34:38.875Z,5.50
2022-11-28T20:39:45.382Z,13.50
2022-11-28T20:44:50.657Z,4.00
2022-11-28T20:49:55.979Z,2.00
2022-11-28T20:55:01.353Z,3.33
2022-11-28T21:00:08.367Z,8.00
2022-11-28T21:05:13.667Z,4.00
2022-11-28T21:10:18.971Z,2.00
2022-11-28T21:15:26.609Z,8.00
2022-11-28T21:20:31.968Z,8.00
2022-11-28T21:25:42.669Z,10.00
2022-11-28T21:30:49.318Z,9.33
2022-11-28T21:41:00.983Z,6.50
2022-11-28T21:46:09.535Z,9.33
2022-11-28T21:51:25.256Z,4.00
2022-11-28T21:56:33.278Z,8.50
2022-11-28T22:01:40.021Z,5.33
2022-11-28T22:06:46.634Z,4.00
2022-11-28T22:11:53.844Z,8.00
2022-11-28T22:17:00.528Z,2.50
2022-11-28T22:22:06.488Z,2.00
2022-11-28T22:27:12.363Z,11.50
2022-11-28T22:32:18.445Z,7.50
2022-11-28T22:37:23.460Z,11.00
2022-11-28T22:42:29.119Z,9.33
2022-11-28T22:47:35.331Z,2.00
2022-11-28T22:52:41.255Z,5.00
2022-11-28T22:57:46.322Z,10.00
2022-11-28T23:02:51.751Z,18.50
2022-11-28T23:07:57.151Z,8.00
2022-11-28T23:13:02.313Z,13.00
2022-11-28T23:18:07.393Z,14.00
2022-11-28T23:23:12.349Z,13.75
2022-11-28T23:28:17.338Z,4.00
2022-11-28T23:33:22.445Z,4.00
2022-11-28T23:38:27.522Z,8.00
2022-11-28T23:43:34.866Z,10.00
2022-11-28T23:48:41.821Z,14.00
2022-11-28T23:53:48.204Z,17.00
2022-11-28T23:58:55.273Z,7.50
